Time;durP1;ratioP1;P1;durP2;ratioP2;P2;SDS_P1;SDS_P2;PMS_P1;PMS_P2;Temp;Humidity;BMP_temperature;BMP_pressure;BME280_temperature;BME280_humidity;BME280_pressure;Samples;Min_cycle;Max_cycle;Signal;HPM_P1;HPM_P2
2022/10/24 00:01:23;;;;;;;8.10;2.40;;;;;;;20.95;68.07;99849.34;4941822;28;20175;-66
2022/10/24 00:03:48;;;;;;;5.90;2.17;;;;;;;20.95;68.40;99843.59;4974816;28;20198;-66
2022/10/24 00:06:14;;;;;;;6.60;2.40;;;;;;;20.94;68.51;99842.81;4925516;28;20177;-67
2022/10/24 00:08:40;;;;;;;7.37;2.17;;;;;;;20.93;67.95;99846.88;4941613;28;20163;-67
2022/10/24 00:11:14;;;;;;;4.90;2.07;;;;;;;20.95;68.10;99846.47;4941582;28;20214;-66
2022/10/24 00:13:39;;;;;;;3.90;2.40;;;;;;;20.93;68.10;99846.88;4957639;28;20417;-66
2022/10/24 00:16:05;;;;;;;6.30;2.40;;;;;;;20.92;68.14;99841.56;4941205;28;20410;-66
2022/10/24 00:18:31;;;;;;;5.00;2.20;;;;;;;20.94;68.62;99848.53;4943882;28;20191;-66
2022/10/24 00:20:56;;;;;;;5.40;1.87;;;;;;;20.91;68.72;99843.63;4973262;28;20233;-66
2022/10/24 00:23:21;;;;;;;4.20;1.80;;;;;;;20.91;68.48;99835.00;4956910;28;20194;-66
2022/10/24 00:25:47;;;;;;;3.27;1.67;;;;;;;20.93;68.47;99834.59;4974789;28;20159;-66
2022/10/24 00:28:12;;;;;;;7.63;2.10;;;;;;;20.92;68.12;99835.84;4974652;28;20192;-66
2022/10/24 00:30:38;;;;;;;6.27;2.40;;;;;;;20.91;68.30;99832.13;4957419;28;20578;-66
2022/10/24 00:33:03;;;;;;;4.80;2.03;;;;;;;20.93;68.21;99837.47;4925196;28;20634;-67
2022/10/24 00:35:29;;;;;;;3.90;1.63;;;;;;;20.93;68.69;99841.13;4940987;28;20665;-66
2022/10/24 00:37:54;;;;;;;4.33;2.10;;;;;;;20.91;68.45;99843.63;4974237;28;20784;-66
2022/10/24 00:40:20;;;;;;;5.37;2.00;;;;;;;20.91;68.56;99839.91;4925187;28;20578;-66
2022/10/24 00:42:46;;;;;;;8.67;2.37;;;;;;;20.90;68.49;99847.72;4957027;28;20159;-66
2022/10/24 00:45:56;;;;;;;5.07;1.70;;;;;;;20.91;68.90;99848.53;4956819;28;20197;-66
2022/10/24 00:48:22;;;;;;;3.93;2.20;;;;;;;20.92;68.73;99845.25;4879653;29;20456;-66
2022/10/24 00:50:48;;;;;;;7.77;2.50;;;;;;;20.90;68.75;99847.72;4962836;28;20470;-66
2022/10/24 00:53:14;;;;;;;6.20;1.93;;;;;;;20.88;68.86;99838.66;4924874;28;20246;-66
2022/10/24 00:55:39;;;;;;;3.80;1.70;;;;;;;20.90;68.54;99841.16;4942464;28;20508;-66
2022/10/24 00:58:05;;;;;;;3.60;1.57;;;;;;;20.90;68.39;99833.38;4972024;28;20170;-67
2022/10/24 01:00:33;;;;;;;6.60;2.10;;;;;;;20.89;68.68;99836.59;4972395;28;20171;-73
2022/10/24 01:02:59;;;;;;;4.63;1.80;;;;;;;20.89;68.31;99828.00;4955352;28;20183;-73
2022/10/24 01:05:26;;;;;;;4.60;2.20;;;;;;;20.91;68.62;99831.31;4974671;28;20454;-72
2022/10/24 01:08:18;;;;;;;3.33;2.00;;;;;;;20.88;68.39;99832.91;4954444;28;20233;-74
2022/10/24 01:11:17;;;;;;;3.30;1.87;;;;;;;20.90;68.61;99832.53;4954286;29;20450;-74
2022/10/24 01:14:04;;;;;;;9.13;2.53;;;;;;;20.89;68.37;99828.00;4956329;28;20391;-74
2022/10/24 01:16:47;;;;;;;7.17;2.30;;;;;;;20.87;68.53;99825.53;4956316;29;20454;-73
2022/10/24 01:19:31;;;;;;;4.30;2.00;;;;;;;20.88;68.74;99814.88;4924740;28;20452;-73
2022/10/24 01:22:10;;;;;;;8.33;1.63;;;;;;;20.88;68.83;99818.56;4987575;28;20418;-73
2022/10/24 01:24:51;;;;;;;5.50;1.90;;;;;;;20.87;68.58;99819.78;4958619;28;20792;-74
2022/10/24 01:27:43;;;;;;;4.90;1.87;;;;;;;20.86;68.66;99800.94;4974404;28;20428;-74
2022/10/24 01:30:13;;;;;;;7.10;2.63;;;;;;;20.85;68.59;99799.31;4975563;28;20453;-73
2022/10/24 01:32:52;;;;;;;3.40;1.90;;;;;;;20.86;68.88;99803.81;4975168;28;20414;-74
2022/10/24 01:36:04;;;;;;;4.13;1.73;;;;;;;20.85;68.88;99805.03;4974264;28;20426;-74
2022/10/24 01:38:56;;;;;;;3.60;1.93;;;;;;;20.86;68.86;99797.25;4970357;28;20439;-74
2022/10/24 01:41:23;;;;;;;5.90;1.80;;;;;;;20.87;68.96;99802.56;4938612;29;20544;-72
2022/10/24 01:43:52;;;;;;;3.80;2.00;;;;;;;20.87;68.57;99805.44;4954807;29;20415;-74
2022/10/24 01:46:19;;;;;;;3.70;1.67;;;;;;;20.86;68.58;99808.72;4954960;29;20830;-73
2022/10/24 01:48:48;;;;;;;5.00;2.00;;;;;;;20.84;69.06;99803.41;4938458;29;20442;-73
2022/10/24 01:51:14;;;;;;;3.73;1.70;;;;;;;20.84;68.91;99809.16;4953810;29;20446;-73
2022/10/24 01:53:40;;;;;;;4.20;1.83;;;;;;;20.85;68.95;99809.94;4937767;29;20486;-72
2022/10/24 01:56:06;;;;;;;4.23;1.30;;;;;;;20.84;68.79;99806.28;4938270;29;20411;-74
2022/10/24 01:58:31;;;;;;;4.33;2.17;;;;;;;20.85;68.62;99804.22;4954072;29;21284;-74
2022/10/24 02:01:18;;;;;;;8.60;2.03;;;;;;;20.85;68.83;99805.03;4953307;28;20183;-72
2022/10/24 02:03:49;;;;;;;3.63;1.60;;;;;;;20.82;68.83;99800.09;4954047;28;20203;-75
2022/10/24 02:06:19;;;;;;;4.30;1.50;;;;;;;20.84;68.74;99797.69;4939821;28;20419;-73
2022/10/24 02:08:46;;;;;;;5.10;1.80;;;;;;;20.85;68.74;99807.91;4957347;28;20417;-72
2022/10/24 02:11:12;;;;;;;5.10;1.97;;;;;;;20.83;68.87;99801.75;4956837;28;20477;-72
2022/10/24 02:13:49;;;;;;;4.73;1.60;;;;;;;20.82;68.67;99794.38;4941059;28;20422;-73
2022/10/24 02:16:16;;;;;;;5.20;1.90;;;;;;;20.83;68.54;99786.59;4941497;28;20193;-73
2022/10/24 02:18:42;;;;;;;3.70;2.17;;;;;;;20.86;68.72;99795.19;4940862;28;20438;-73
2022/10/24 02:21:32;;;;;;;3.60;1.63;;;;;;;20.84;68.51;99799.72;4959310;28;20833;-74
2022/10/24 02:24:10;;;;;;;6.77;1.57;;;;;;;20.84;68.65;99791.09;4957995;28;20189;-74
2022/10/24 02:26:51;;;;;;;4.10;1.90;;;;;;;20.83;68.80;99798.06;4989677;28;20453;-73
2022/10/24 02:29:35;;;;;;;5.77;2.03;;;;;;;20.82;68.58;99777.16;4972054;28;20422;-74
2022/10/24 02:32:00;;;;;;;3.37;1.50;;;;;;;20.82;68.69;99777.16;4960036;28;20454;-74
2022/10/24 02:34:28;;;;;;;3.90;1.80;;;;;;;20.81;68.96;99768.94;4941362;28;20791;-74
2022/10/24 02:36:54;;;;;;;3.40;2.00;;;;;;;20.82;68.60;99765.69;4941898;28;20183;-73
2022/10/24 02:39:19;;;;;;;3.47;1.40;;;;;;;20.81;68.76;99763.22;4941536;28;20417;-73
2022/10/24 02:41:45;;;;;;;3.73;1.90;;;;;;;20.80;68.77;99771.03;4941711;28;20158;-72
2022/10/24 02:44:11;;;;;;;3.50;1.77;;;;;;;20.84;68.87;99774.72;4941404;28;20661;-74
2022/10/24 02:46:36;;;;;;;3.27;1.70;;;;;;;20.85;68.60;99776.34;4941972;28;20166;-73
2022/10/24 02:49:02;;;;;;;2.77;1.80;;;;;;;20.81;68.72;99764.03;4922223;29;21007;-74
2022/10/24 02:51:32;;;;;;;3.47;2.00;;;;;;;20.81;69.09;99761.19;4922605;29;20618;-73
2022/10/24 02:53:58;;;;;;;5.90;1.50;;;;;;;20.81;69.18;99772.66;4922537;29;20259;-73
2022/10/24 02:56:24;;;;;;;2.80;1.53;;;;;;;20.80;68.67;99776.75;4938038;29;20418;-74
2022/10/24 02:58:49;;;;;;;4.43;2.27;;;;;;;20.80;68.94;99779.63;4922514;29;20415;-73
2022/10/24 03:01:14;;;;;;;3.30;2.00;;;;;;;20.81;68.60;99780.44;4938344;29;20182;-73
2022/10/24 03:03:40;;;;;;;3.10;1.63;;;;;;;20.80;69.11;99790.28;4967477;28;20198;-73
2022/10/24 03:06:05;;;;;;;3.70;1.83;;;;;;;20.80;68.57;99796.00;4976589;28;20177;-72
2022/10/24 03:08:31;;;;;;;2.73;1.80;;;;;;;20.80;69.04;99808.31;4992062;28;20192;-73
2022/10/24 03:10:56;;;;;;;2.70;1.40;;;;;;;20.81;69.00;99806.25;4980668;28;20194;-72
2022/10/24 03:13:22;;;;;;;4.57;1.93;;;;;;;20.80;68.61;99804.63;4944219;28;20185;-73
2022/10/24 03:15:47;;;;;;;4.77;2.00;;;;;;;20.82;69.14;99799.31;4963456;28;20170;-72
2022/10/24 03:18:13;;;;;;;4.23;2.03;;;;;;;20.80;69.11;99802.59;4978233;28;20186;-74
2022/10/24 03:20:38;;;;;;;3.50;1.40;;;;;;;20.81;68.74;99798.47;4961930;28;20183;-74
2022/10/24 03:23:03;;;;;;;2.77;1.60;;;;;;;20.78;68.84;99793.53;4961796;28;20158;-74
2022/10/24 03:25:29;;;;;;;2.73;1.50;;;;;;;20.79;68.62;99800.94;4961626;28;20201;-73
2022/10/24 03:27:54;;;;;;;3.93;1.80;;;;;;;20.79;68.47;99800.94;4946001;28;20179;-73
2022/10/24 03:30:20;;;;;;;6.73;1.97;;;;;;;20.79;68.74;99789.47;4978948;28;20198;-73
2022/10/24 03:32:45;;;;;;;4.10;1.80;;;;;;;20.79;68.58;99789.47;4961875;28;20285;-72
2022/10/24 03:35:11;;;;;;;3.57;1.47;;;;;;;20.80;68.83;99793.97;4945388;28;20262;-74
2022/10/24 03:37:36;;;;;;;2.70;1.27;;;;;;;20.78;69.19;99787.00;4961643;28;20170;-73
2022/10/24 03:40:02;;;;;;;3.10;1.77;;;;;;;20.78;68.69;99796.41;4945827;28;20197;-74
2022/10/24 03:42:27;;;;;;;3.53;1.47;;;;;;;20.79;68.86;99789.47;4961347;28;20178;-73
2022/10/24 03:44:52;;;;;;;3.30;1.50;;;;;;;20.79;68.78;99785.78;4945644;28;20178;-73
2022/10/24 03:47:18;;;;;;;2.67;1.50;;;;;;;20.78;68.79;99795.63;4945570;28;20174;-72
2022/10/24 03:49:44;;;;;;;4.30;1.73;;;;;;;20.78;69.20;99796.41;4959297;29;20178;-73
2022/10/24 03:52:09;;;;;;;2.87;1.60;;;;;;;20.79;69.09;99806.69;4926356;29;20281;-74
2022/10/24 03:54:35;;;;;;;4.80;1.50;;;;;;;20.79;68.66;99805.84;4942342;29;20179;-74
2022/10/24 03:57:00;;;;;;;5.67;1.80;;;;;;;20.77;69.08;99814.88;4942166;29;20182;-73
2022/10/24 03:59:26;;;;;;;2.47;1.43;;;;;;;20.79;68.81;99811.59;4926415;29;20186;-72
2022/10/24 04:01:51;;;;;;;3.77;1.53;;;;;;;20.79;68.53;99809.56;4926757;29;20164;-74
2022/10/24 04:04:16;;;;;;;5.53;1.83;;;;;;;20.78;68.95;99819.38;4926337;29;20202;-74
2022/10/24 04:06:42;;;;;;;4.73;1.50;;;;;;;20.79;69.06;99823.91;4934545;29;20231;-73
2022/10/24 04:09:07;;;;;;;2.87;1.40;;;;;;;20.78;68.71;99822.22;4939128;29;20187;-72
2022/10/24 04:11:33;;;;;;;2.40;1.47;;;;;;;20.78;69.08;99833.72;4938909;29;20239;-72
2022/10/24 04:13:59;;;;;;;3.90;1.63;;;;;;;20.80;68.66;99833.31;4940565;29;20183;-74
2022/10/24 04:16:25;;;;;;;3.50;1.50;;;;;;;20.78;68.76;99825.09;4939104;29;20164;-74
2022/10/24 04:18:50;;;;;;;3.40;1.10;;;;;;;20.78;69.09;99822.22;4951290;29;20442;-74
2022/10/24 04:21:16;;;;;;;7.23;1.93;;;;;;;20.79;68.74;99812.41;4958328;29;20179;-74
2022/10/24 04:23:43;;;;;;;3.47;1.70;;;;;;;20.79;68.89;99817.31;4944606;28;20525;-73
2022/10/24 04:26:10;;;;;;;5.30;1.60;;;;;;;20.80;68.94;99818.97;4943134;29;20187;-73
2022/10/24 04:28:35;;;;;;;2.40;1.30;;;;;;;20.79;68.63;99828.81;4945578;29;20500;-74
2022/10/24 04:31:00;;;;;;;3.17;1.47;;;;;;;20.80;68.73;99836.19;4960164;28;20454;-73
2022/10/24 04:33:26;;;;;;;5.43;1.67;;;;;;;20.79;68.66;99835.38;4959355;29;20176;-73
2022/10/24 04:35:51;;;;;;;2.97;1.70;;;;;;;20.81;68.42;99843.56;4943110;29;20183;-73
2022/10/24 04:38:17;;;;;;;3.50;1.50;;;;;;;20.79;68.82;99840.28;4943233;29;20190;-74
2022/10/24 04:40:50;;;;;;;3.37;1.40;;;;;;;20.80;68.52;99847.66;4926424;29;20202;-73
2022/10/24 04:43:16;;;;;;;2.83;1.30;;;;;;;20.79;68.67;99852.59;4942893;29;20192;-74
2022/10/24 04:45:41;;;;;;;2.83;1.30;;;;;;;20.79;68.75;99835.38;4958955;29;20961;-74
2022/10/24 04:48:07;;;;;;;2.70;1.23;;;;;;;20.78;68.43;99825.09;4943140;29;20191;-72
2022/10/24 04:50:32;;;;;;;2.67;1.57;;;;;;;20.78;68.69;99848.06;4961015;28;20663;-72
2022/10/24 04:52:57;;;;;;;3.60;1.50;;;;;;;20.79;68.79;99854.63;4944400;29;20170;-73
2022/10/24 04:55:23;;;;;;;2.97;1.17;;;;;;;20.79;68.79;99869.81;4959814;29;20581;-74
2022/10/24 04:57:48;;;;;;;3.53;1.77;;;;;;;20.79;68.79;99884.16;4961545;28;20167;-73
2022/10/24 05:00:14;;;;;;;3.43;1.40;;;;;;;20.81;68.96;99886.59;4960787;28;20175;-75
2022/10/24 05:02:39;;;;;;;5.00;1.43;;;;;;;20.80;68.41;99874.31;4961844;28;20203;-73
2022/10/24 05:05:05;;;;;;;3.73;1.80;;;;;;;20.80;69.10;99874.31;4959575;29;20206;-74
2022/10/24 05:07:31;;;;;;;2.70;1.40;;;;;;;20.80;69.16;99867.75;4975666;28;20223;-73
2022/10/24 05:09:56;;;;;;;3.43;1.20;;;;;;;20.81;68.51;99873.06;4994276;28;20330;-75
2022/10/24 05:12:22;;;;;;;2.07;1.03;;;;;;;20.79;68.73;99871.84;4976977;28;20166;-74
2022/10/24 05:14:47;;;;;;;4.60;1.60;;;;;;;20.80;68.63;99880.03;4978706;28;20181;-74
2022/10/24 05:17:13;;;;;;;2.37;1.43;;;;;;;20.80;68.85;99873.47;4979341;28;20170;-73
2022/10/24 05:19:39;;;;;;;4.30;1.70;;;;;;;20.82;68.62;99877.59;4927810;29;20185;-73
2022/10/24 05:22:04;;;;;;;3.23;1.30;;;;;;;20.84;68.77;99882.91;4940145;29;20768;-72
2022/10/24 05:24:30;;;;;;;3.47;1.40;;;;;;;20.81;68.82;99872.25;4955964;29;20163;-73
2022/10/24 05:26:55;;;;;;;2.63;1.30;;;;;;;20.81;68.96;99869.38;4940389;29;20617;-75
2022/10/24 05:29:21;;;;;;;3.10;1.53;;;;;;;20.83;69.03;99876.34;4940564;29;20175;-73
2022/10/24 05:31:46;;;;;;;3.60;1.50;;;;;;;20.82;69.30;99874.72;4941420;29;20212;-74
2022/10/24 05:34:11;;;;;;;3.37;1.80;;;;;;;20.80;68.72;99877.19;4923978;29;20187;-73
2022/10/24 05:36:37;;;;;;;3.10;1.60;;;;;;;20.80;68.84;99879.22;4954999;29;20164;-74
2022/10/24 05:39:02;;;;;;;2.53;1.50;;;;;;;20.80;68.72;99870.59;4955529;29;20180;-74
2022/10/24 05:41:28;;;;;;;3.20;1.40;;;;;;;20.83;69.17;99872.69;4939623;29;20184;-74
2022/10/24 05:43:53;;;;;;;3.17;1.30;;;;;;;20.81;68.51;99860.75;4940334;29;20171;-74
2022/10/24 05:46:19;;;;;;;3.90;1.60;;;;;;;20.81;68.77;99863.63;4958562;29;20183;-75
2022/10/24 05:48:44;;;;;;;2.77;1.50;;;;;;;20.83;68.63;99873.47;4960669;28;20193;-75
2022/10/24 05:51:09;;;;;;;3.70;1.50;;;;;;;20.81;69.24;99870.22;4943121;29;20199;-73
2022/10/24 05:53:35;;;;;;;2.50;1.50;;;;;;;20.79;68.84;99887.03;4942402;29;20179;-74
2022/10/24 05:56:00;;;;;;;3.60;1.30;;;;;;;20.80;68.76;99908.75;4960151;28;20538;-73
2022/10/24 05:58:26;;;;;;;2.70;1.33;;;;;;;20.83;68.52;99927.19;4942101;29;20179;-73
2022/10/24 06:00:51;;;;;;;6.40;1.90;;;;;;;20.82;69.11;99914.88;4958202;29;20175;-74
2022/10/24 06:03:17;;;;;;;7.57;2.00;;;;;;;20.78;68.76;99891.09;4926978;29;20473;-75
2022/10/24 06:05:42;;;;;;;2.33;1.40;;;;;;;20.80;68.71;99880.03;4958371;29;20172;-74
2022/10/24 06:08:08;;;;;;;3.83;1.53;;;;;;;20.79;68.95;99898.50;4958374;29;20231;-74
2022/10/24 06:10:33;;;;;;;3.70;1.50;;;;;;;20.80;69.04;99900.13;4974365;28;20681;-73
2022/10/24 06:12:59;;;;;;;5.40;1.83;;;;;;;20.81;68.84;99912.41;4958282;29;20222;-75
2022/10/24 06:15:24;;;;;;;3.80;1.63;;;;;;;20.81;69.02;99923.88;4957930;29;20180;-74
2022/10/24 06:17:50;;;;;;;2.93;1.20;;;;;;;20.81;68.92;99935.38;4941456;29;20197;-74
2022/10/24 06:20:15;;;;;;;5.07;2.13;;;;;;;20.80;68.89;99946.03;4959848;28;20675;-74
2022/10/24 06:22:44;;;;;;;5.10;1.80;;;;;;;20.81;68.61;99944.81;4974591;28;20247;-75
2022/10/24 06:25:10;;;;;;;3.57;2.10;;;;;;;20.80;68.84;99937.44;4959006;29;20221;-74
2022/10/24 06:27:35;;;;;;;2.80;1.70;;;;;;;20.82;68.79;99937.84;4973989;28;20459;-75
2022/10/24 06:30:01;;;;;;;3.43;1.67;;;;;;;20.81;68.72;99924.72;4965101;28;20408;-73
2022/10/24 06:32:26;;;;;;;4.77;2.00;;;;;;;20.83;68.84;99913.66;4958054;29;20183;-73
2022/10/24 06:34:52;;;;;;;9.20;2.27;;;;;;;20.82;68.50;99934.16;4958053;29;20167;-74
2022/10/24 06:37:17;;;;;;;3.87;1.67;;;;;;;20.81;68.93;99935.38;4957961;29;20191;-74
2022/10/24 06:39:43;;;;;;;3.70;2.03;;;;;;;20.80;69.08;99931.69;4941466;29;20226;-74
2022/10/24 06:42:08;;;;;;;3.53;2.00;;;;;;;20.79;69.08;99909.97;4940949;29;20186;-74
2022/10/24 06:44:33;;;;;;;3.20;1.13;;;;;;;20.81;68.80;99907.50;4954647;29;20172;-74
2022/10/24 06:46:59;;;;;;;2.80;1.60;;;;;;;20.80;69.03;99917.34;4957641;28;20171;-74
2022/10/24 06:49:24;;;;;;;4.53;1.87;;;;;;;20.80;68.93;99913.66;4940683;29;20722;-74
2022/10/24 06:51:50;;;;;;;6.80;1.73;;;;;;;20.81;68.94;99918.97;4955948;29;20214;-73
2022/10/24 06:54:15;;;;;;;3.83;1.50;;;;;;;20.83;68.51;99913.66;4921837;29;20200;-73
2022/10/24 06:56:41;;;;;;;4.50;1.47;;;;;;;20.83;68.93;99922.25;4922697;29;20538;-74
2022/10/24 06:59:10;;;;;;;2.93;1.33;;;;;;;20.84;68.52;99923.94;4938608;29;20167;-74
2022/10/24 07:01:36;;;;;;;3.60;1.53;;;;;;;20.83;68.78;99930.88;4946824;29;20179;-74
2022/10/24 07:04:01;;;;;;;3.70;1.40;;;;;;;20.83;68.76;99944.41;4942737;29;20447;-75
2022/10/24 07:06:27;;;;;;;3.10;1.70;;;;;;;20.83;68.90;99939.47;4960692;28;20222;-74
2022/10/24 07:08:55;;;;;;;4.43;1.53;;;;;;;20.83;68.90;99945.22;4935438;28;20198;-75
2022/10/24 07:11:20;;;;;;;5.33;1.77;;;;;;;20.80;68.80;99943.16;4948628;28;20476;-74
2022/10/24 07:13:46;;;;;;;3.97;1.60;;;;;;;20.81;68.66;99941.09;4961349;28;20414;-74
2022/10/24 07:16:11;;;;;;;3.10;1.57;;;;;;;20.79;68.84;99947.28;4977275;28;20177;-75
2022/10/24 07:18:37;;;;;;;3.53;1.67;;;;;;;20.84;68.59;99951.78;4969325;28;20209;-74
2022/10/24 07:21:07;;;;;;;3.03;1.47;;;;;;;20.83;69.04;99944.41;4942733;28;20171;-75
2022/10/24 07:23:32;;;;;;;2.33;1.10;;;;;;;20.82;68.97;99943.56;4941517;29;20236;-74
2022/10/24 07:26:06;;;;;;;2.90;1.30;;;;;;;20.84;68.85;99951.78;4942120;28;20429;-74
2022/10/24 07:28:31;;;;;;;3.00;1.30;;;;;;;20.83;68.68;99959.56;4964106;28;20187;-75
2022/10/24 07:30:57;;;;;;;3.17;1.40;;;;;;;20.84;68.41;99955.50;4936240;28;20485;-74
2022/10/24 07:33:22;;;;;;;2.63;1.60;;;;;;;20.82;68.92;99946.44;4951080;28;20221;-74
2022/10/24 07:35:48;;;;;;;3.30;1.57;;;;;;;20.83;68.76;99956.69;4953986;28;20189;-74
2022/10/24 07:38:13;;;;;;;2.30;1.13;;;;;;;20.84;68.72;99963.25;4955313;28;20186;-75
2022/10/24 07:40:38;;;;;;;3.17;1.40;;;;;;;20.83;68.72;99965.28;4948273;28;20186;-74
2022/10/24 07:43:04;;;;;;;2.60;1.30;;;;;;;20.84;68.80;99966.97;4952101;28;20179;-74
2022/10/24 07:45:31;;;;;;;3.07;1.30;;;;;;;20.87;68.80;99971.06;4934808;29;20202;-75
2022/10/24 07:47:59;;;;;;;2.43;1.60;;;;;;;20.85;68.84;99964.91;4944455;28;20202;-72
2022/10/24 07:50:25;;;;;;;2.53;1.50;;;;;;;20.85;68.67;99971.47;4968049;28;20949;-74
2022/10/24 07:52:51;;;;;;;4.90;1.40;;;;;;;20.84;69.00;99951.78;4960587;28;20431;-74
2022/10/24 07:55:16;;;;;;;3.23;1.50;;;;;;;20.84;68.72;99952.63;4944366;28;20508;-74
2022/10/24 07:57:42;;;;;;;4.20;1.63;;;;;;;20.85;68.78;99950.56;4949414;28;20182;-73
2022/10/24 08:00:08;;;;;;;6.43;1.40;;;;;;;20.84;68.87;99948.91;4966328;28;20187;-73
2022/10/24 08:02:33;;;;;;;2.47;1.30;;;;;;;20.84;68.47;99949.75;4952021;28;20587;-73
2022/10/24 08:04:59;;;;;;;3.37;1.40;;;;;;;20.84;68.67;99943.19;4956899;28;20453;-75
2022/10/24 08:07:24;;;;;;;5.30;1.50;;;;;;;20.84;68.61;99941.16;4974210;28;20230;-73
2022/10/24 08:09:50;;;;;;;4.17;1.40;;;;;;;20.85;68.92;99948.50;4952724;28;20190;-73
2022/10/24 08:12:16;;;;;;;3.77;1.67;;;;;;;20.84;68.74;99949.75;4971820;28;20203;-73
2022/10/24 08:14:41;;;;;;;3.47;1.40;;;;;;;20.81;68.57;99950.53;4944604;28;20182;-75
2022/10/24 08:17:07;;;;;;;2.70;1.50;;;;;;;20.83;68.83;99965.28;4956290;28;20414;-73
2022/10/24 08:19:32;;;;;;;2.50;1.23;;;;;;;20.84;69.01;99955.50;4948353;28;20671;-73
2022/10/24 08:21:58;;;;;;;3.30;1.40;;;;;;;20.86;68.93;99966.53;4928810;29;20851;-75
2022/10/24 08:24:23;;;;;;;3.90;1.53;;;;;;;20.86;68.64;99955.91;4961020;29;20661;-75
2022/10/24 08:26:49;;;;;;;4.30;1.40;;;;;;;20.82;68.54;99963.66;4945472;29;20220;-73
2022/10/24 08:29:20;;;;;;;3.93;1.80;;;;;;;20.85;68.76;99965.72;4967660;28;20234;-74
2022/10/24 08:31:48;;;;;;;2.87;1.53;;;;;;;20.85;68.44;99954.25;4967752;28;20203;-73
2022/10/24 08:34:14;;;;;;;6.17;1.93;;;;;;;20.85;69.07;99954.25;4933129;28;20425;-73
2022/10/24 08:36:39;;;;;;;2.93;1.30;;;;;;;20.86;68.97;99958.75;4948565;28;20434;-72
2022/10/24 08:39:04;;;;;;;2.17;1.13;;;;;;;20.84;68.63;99946.88;4979145;28;20494;-73
2022/10/24 08:41:36;;;;;;;4.43;1.80;;;;;;;20.86;68.78;99955.06;4957410;28;20194;-73
2022/10/24 08:44:04;;;;;;;2.93;1.40;;;;;;;20.85;68.62;99957.13;4960980;28;20799;-74
2022/10/24 08:46:47;;;;;;;4.00;1.57;;;;;;;20.87;68.63;99951.78;4953152;28;20434;-74
2022/10/24 08:49:42;;;;;;;4.30;1.27;;;;;;;20.85;68.83;99939.06;4958109;28;20425;-73
2022/10/24 08:52:31;;;;;;;3.97;1.43;;;;;;;20.84;68.54;99944.00;4968262;28;20470;-75
2022/10/24 08:54:57;;;;;;;3.67;1.57;;;;;;;20.84;68.96;99944.00;4961961;28;20430;-72
2022/10/24 08:57:27;;;;;;;2.97;1.70;;;;;;;20.85;68.73;99953.41;4939156;28;20429;-75
2022/10/24 08:59:54;;;;;;;4.23;1.63;;;;;;;20.85;68.67;99948.50;4937027;28;20481;-75
2022/10/24 09:02:29;;;;;;;2.93;1.33;;;;;;;20.84;68.60;99952.63;4948482;28;20435;-72
2022/10/24 09:04:59;;;;;;;2.67;1.20;;;;;;;20.86;68.64;99949.31;4960171;28;20449;-73
2022/10/24 09:07:24;;;;;;;3.10;1.17;;;;;;;20.87;69.07;99954.66;4967449;28;20873;-70
2022/10/24 09:09:53;;;;;;;2.50;1.20;;;;;;;20.85;68.80;99954.25;4967187;28;20484;-74
2022/10/24 09:12:19;;;;;;;4.00;1.67;;;;;;;20.87;68.40;99963.28;4942974;28;20194;-74
2022/10/24 09:14:52;;;;;;;4.93;1.63;;;;;;;20.87;68.68;99968.22;4965106;28;21004;-74
2022/10/24 09:17:30;;;;;;;3.00;1.30;;;;;;;20.87;68.87;99974.75;4951931;28;20233;-73
2022/10/24 09:20:00;;;;;;;2.80;1.30;;;;;;;20.87;68.71;99973.94;4938938;28;20437;-73
2022/10/24 09:22:27;;;;;;;2.33;1.37;;;;;;;20.89;68.61;99971.47;4963446;28;20782;-74
2022/10/24 09:25:12;;;;;;;2.97;1.40;;;;;;;20.88;68.80;99972.72;4955512;29;20462;-74
2022/10/24 09:27:38;;;;;;;3.57;1.40;;;;;;;20.87;68.97;99980.50;4933142;28;20604;-74
2022/10/24 09:30:05;;;;;;;2.80;1.63;;;;;;;20.89;68.59;99986.69;4935486;28;20771;-73
2022/10/24 09:32:31;;;;;;;3.23;1.50;;;;;;;20.89;68.69;99985.81;4932840;28;20580;-74
2022/10/24 09:35:05;;;;;;;3.17;1.40;;;;;;;20.88;68.44;99976.38;4964903;28;20430;-75
2022/10/24 09:37:34;;;;;;;4.03;1.40;;;;;;;20.89;68.52;99985.81;4931346;28;20431;-73
2022/10/24 09:40:25;;;;;;;2.20;1.07;;;;;;;20.87;68.61;99980.50;4960281;28;20426;-71
2022/10/24 09:43:06;;;;;;;3.67;1.13;;;;;;;20.90;68.51;99978.88;4948085;28;20888;-73
2022/10/24 09:45:36;;;;;;;7.57;1.93;;;;;;;20.86;68.98;99981.72;4950316;28;20433;-74
2022/10/24 09:48:16;;;;;;;3.43;1.63;;;;;;;20.89;68.74;99980.94;4948145;28;20437;-74
2022/10/24 09:50:42;;;;;;;2.53;1.50;;;;;;;20.90;68.60;99993.22;4932502;28;20564;-73
2022/10/24 09:53:23;;;;;;;5.20;1.70;;;;;;;20.90;68.50;99991.19;4943308;28;20486;-74
2022/10/24 09:55:51;;;;;;;3.10;1.20;;;;;;;20.92;68.77;99987.94;4964267;28;20465;-72
2022/10/24 09:58:21;;;;;;;3.00;1.00;;;;;;;20.91;68.46;99994.88;4959887;28;20961;-72
2022/10/24 10:01:13;;;;;;;2.10;1.00;;;;;;;20.89;68.70;99995.31;4954962;28;20442;-75
2022/10/24 10:03:38;;;;;;;3.50;1.30;;;;;;;20.92;68.66;100005.94;4954423;28;20560;-72
2022/10/24 10:06:19;;;;;;;3.27;1.60;;;;;;;20.91;68.68;99994.88;4937592;28;20431;-73
2022/10/24 10:08:54;;;;;;;3.73;1.53;;;;;;;20.91;68.85;100017.84;4933820;28;20206;-73
2022/10/24 10:11:31;;;;;;;3.53;1.50;;;;;;;20.91;68.72;100012.09;4961513;28;20472;-72
2022/10/24 10:13:58;;;;;;;3.30;1.20;;;;;;;20.91;68.55;100010.06;4930256;28;20425;-72
2022/10/24 10:16:35;;;;;;;1.83;1.10;;;;;;;20.91;68.70;100015.78;4931223;28;20411;-72
2022/10/24 10:19:15;;;;;;;3.67;1.20;;;;;;;20.92;68.69;100019.50;4928590;28;20816;-73
2022/10/24 10:22:00;;;;;;;2.43;1.33;;;;;;;20.92;68.40;100023.16;4938886;28;20434;-73
2022/10/24 10:24:39;;;;;;;2.40;1.27;;;;;;;20.91;68.92;100033.00;4962243;28;20481;-70
2022/10/24 10:27:34;;;;;;;3.10;1.60;;;;;;;20.92;68.44;100034.66;4959511;28;21237;-74
2022/10/24 10:30:14;;;;;;;4.00;1.50;;;;;;;20.94;68.35;100043.69;4945534;28;20453;-72
2022/10/24 10:32:40;;;;;;;3.27;1.77;;;;;;;20.91;68.72;100058.00;4962890;28;20437;-71
2022/10/24 10:35:19;;;;;;;4.37;1.27;;;;;;;20.91;68.76;100053.09;4961028;28;20933;-74
2022/10/24 10:37:49;;;;;;;4.03;1.40;;;;;;;20.91;68.67;100055.97;4947737;28;20179;-74
2022/10/24 10:40:24;;;;;;;2.67;1.30;;;;;;;20.92;68.42;100065.41;4943814;28;20777;-73
2022/10/24 10:43:12;;;;;;;2.80;1.20;;;;;;;20.94;68.77;100065.81;4961276;28;20432;-73
2022/10/24 10:45:54;;;;;;;5.10;1.37;;;;;;;20.92;68.37;100069.09;4961680;28;20427;-74
2022/10/24 10:48:55;;;;;;;2.30;1.30;;;;;;;20.93;68.56;100067.84;4937089;28;20444;-71
2022/10/24 10:51:26;;;;;;;3.90;1.50;;;;;;;20.94;68.65;100065.81;4946203;28;20454;-74
2022/10/24 10:53:55;;;;;;;3.50;1.20;;;;;;;20.93;68.73;100073.59;4961770;28;20426;-70
2022/10/24 10:56:35;;;;;;;2.50;1.17;;;;;;;20.93;68.60;100070.72;4963888;28;20436;-71
2022/10/24 10:59:27;;;;;;;2.90;1.10;;;;;;;20.92;68.73;100069.09;4953756;28;20449;-73
2022/10/24 11:02:11;;;;;;;2.87;1.40;;;;;;;20.93;69.00;100067.84;4958402;28;20425;-73
2022/10/24 11:05:01;;;;;;;4.20;1.50;;;;;;;20.94;68.94;100072.41;4961054;28;20447;-72
2022/10/24 11:07:33;;;;;;;4.43;1.13;;;;;;;20.94;68.72;100071.56;4961643;28;20501;-74
2022/10/24 11:10:00;;;;;;;2.43;1.20;;;;;;;20.93;68.60;100056.38;4959878;28;20423;-70
2022/10/24 11:12:47;;;;;;;2.20;1.10;;;;;;;20.94;68.62;100069.53;4929888;28;20470;-73
2022/10/24 11:15:30;;;;;;;4.30;1.50;;;;;;;20.93;68.55;100064.19;4943113;28;20430;-73
2022/10/24 11:18:09;;;;;;;4.90;1.40;;;;;;;20.95;68.48;100058.84;4920084;28;20434;-71
2022/10/24 11:20:36;;;;;;;2.13;1.03;;;;;;;20.96;68.62;100067.06;4960765;28;20429;-72
2022/10/24 11:23:17;;;;;;;6.17;1.30;;;;;;;20.96;68.38;100061.31;4951712;28;20442;-71
2022/10/24 11:26:05;;;;;;;8.80;1.70;;;;;;;20.96;68.12;100058.47;4943919;28;20421;-73
2022/10/24 11:28:49;;;;;;;4.10;1.30;;;;;;;20.97;68.43;100062.97;4944630;28;20509;-73
2022/10/24 11:31:36;;;;;;;3.03;1.50;;;;;;;20.95;68.80;100050.25;4957203;28;20496;-74
2022/10/24 11:34:10;;;;;;;2.33;1.20;;;;;;;20.95;68.67;100056.81;4929505;28;20839;-73
2022/10/24 11:36:49;;;;;;;2.23;1.10;;;;;;;20.98;68.53;100049.44;4963702;28;20441;-72
2022/10/24 11:39:38;;;;;;;3.07;1.43;;;;;;;20.96;68.46;100044.09;4917385;28;20441;-74
2022/10/24 11:42:23;;;;;;;4.93;1.73;;;;;;;20.97;68.47;100039.19;4934208;28;20581;-73
2022/10/24 11:45:02;;;;;;;2.50;1.00;;;;;;;20.95;68.37;100033.84;4931647;28;20912;-73